createdAt,value
2019-02-07T00:01:53.797Z,15.57
2019-02-07T00:04:24.273Z,17.47
2019-02-07T00:06:54.888Z,16.67
2019-02-07T00:09:25.496Z,16.00
2019-02-07T00:11:55.966Z,16.17
2019-02-07T00:14:26.534Z,15.23
2019-02-07T00:16:57.041Z,14.83
2019-02-07T00:19:27.632Z,15.83
2019-02-07T00:21:58.095Z,13.53
2019-02-07T00:24:28.881Z,14.40
2019-02-07T00:26:59.350Z,12.87
2019-02-07T00:29:29.845Z,11.67
2019-02-07T00:32:00.391Z,12.87
2019-02-07T00:34:30.955Z,12.37
2019-02-07T00:37:01.931Z,9.43
2019-02-07T00:39:32.473Z,9.10
2019-02-07T00:42:03.233Z,10.47
2019-02-07T00:44:33.692Z,10.17
2019-02-07T00:47:04.258Z,9.67
2019-02-07T00:49:34.715Z,9.67
2019-02-07T00:52:05.316Z,9.60
2019-02-07T00:54:35.853Z,10.07
2019-02-07T00:57:06.386Z,10.23
2019-02-07T00:59:36.871Z,9.90
2019-02-07T01:02:07.956Z,9.57
2019-02-07T01:04:38.585Z,10.93
2019-02-07T01:07:09.271Z,10.13
2019-02-07T01:09:39.861Z,10.53
2019-02-07T01:12:10.460Z,10.53
2019-02-07T01:14:41.061Z,11.50
2019-02-07T01:17:12.004Z,11.77
2019-02-07T01:19:42.615Z,12.50
2019-02-07T01:22:13.082Z,11.70
2019-02-07T01:24:43.538Z,13.70
2019-02-07T01:27:14.245Z,12.40
2019-02-07T01:29:44.696Z,12.80
2019-02-07T01:32:15.181Z,12.37
2019-02-07T01:34:45.672Z,13.00
2019-02-07T01:37:16.350Z,12.50
2019-02-07T01:39:47.017Z,13.10
2019-02-07T01:42:17.517Z,12.90
2019-02-07T01:44:48.453Z,13.50
2019-02-07T01:47:18.905Z,12.90
2019-02-07T01:49:49.368Z,12.87
2019-02-07T01:52:19.961Z,11.87
2019-02-07T01:54:50.429Z,10.87
2019-02-07T01:57:20.893Z,11.47
2019-02-07T01:59:51.404Z,11.03
2019-02-07T02:02:21.859Z,9.73
2019-02-07T02:04:52.349Z,9.77
2019-02-07T02:07:22.864Z,7.43
2019-02-07T02:09:53.563Z,7.17
2019-02-07T02:12:24.311Z,5.37
2019-02-07T02:14:54.847Z,4.93
2019-02-07T02:17:25.340Z,4.60
2019-02-07T02:19:55.796Z,3.70
2019-02-07T02:22:26.303Z,4.57
2019-02-07T02:24:56.799Z,4.40
2019-02-07T02:27:27.259Z,3.77
2019-02-07T02:29:57.956Z,3.90
2019-02-07T02:32:28.412Z,3.40
2019-02-07T02:34:58.904Z,3.80
2019-02-07T02:37:29.339Z,3.40
2019-02-07T02:39:59.962Z,3.67
2019-02-07T02:42:30.551Z,4.03
2019-02-07T02:45:01.004Z,4.20
2019-02-07T02:47:31.691Z,3.90
2019-02-07T02:50:02.155Z,3.70
2019-02-07T02:52:32.717Z,3.77
2019-02-07T02:55:03.281Z,4.00
2019-02-07T02:57:33.736Z,4.50
2019-02-07T03:00:06.676Z,4.47
2019-02-07T03:03:01.888Z,5.03
2019-02-07T03:05:49.691Z,4.60
2019-02-07T03:08:37.825Z,4.57
2019-02-07T03:11:19.982Z,4.47
2019-02-07T03:14:05.863Z,5.03
2019-02-07T03:16:53.469Z,4.70
2019-02-07T03:19:40.268Z,4.70
2019-02-07T03:22:41.215Z,5.33
2019-02-07T03:25:33.607Z,5.73
2019-02-07T03:28:22.256Z,5.80
2019-02-07T03:31:23.839Z,5.53
2019-02-07T03:34:04.799Z,5.77
2019-02-07T03:36:48.567Z,5.50
2019-02-07T03:39:37.975Z,5.20
2019-02-07T03:42:27.404Z,5.53
2019-02-07T03:45:22.798Z,5.87
2019-02-07T03:48:12.134Z,5.60
2019-02-07T03:51:08.285Z,5.33
2019-02-07T03:53:55.995Z,5.33
2019-02-07T03:56:45.325Z,5.13
2019-02-07T03:59:33.502Z,5.27
2019-02-07T04:02:33.990Z,5.73
2019-02-07T04:05:22.722Z,5.53
2019-02-07T04:08:10.470Z,5.10
2019-02-07T04:11:05.536Z,5.47
2019-02-07T04:14:01.062Z,5.40
2019-02-07T04:16:43.958Z,5.80
2019-02-07T04:19:26.071Z,6.20
2019-02-07T04:22:13.779Z,6.17
2019-02-07T04:25:01.740Z,6.53
2019-02-07T04:27:51.025Z,9.07
2019-02-07T04:30:38.787Z,8.37
2019-02-07T04:33:28.126Z,7.63
2019-02-07T04:36:35.308Z,8.40
2019-02-07T04:39:36.258Z,8.73
2019-02-07T04:42:17.739Z,7.03
2019-02-07T04:45:05.453Z,6.70
2019-02-07T04:47:57.981Z,7.03
2019-02-07T04:50:43.717Z,6.07
2019-02-07T04:53:41.935Z,7.87
2019-02-07T04:56:28.476Z,10.20
2019-02-07T04:59:14.758Z,9.87
2019-02-07T05:01:59.930Z,7.83
2019-02-07T05:04:44.491Z,8.30
2019-02-07T05:07:25.750Z,10.40
2019-02-07T05:10:15.079Z,9.47
2019-02-07T05:13:02.792Z,7.33
2019-02-07T05:16:04.091Z,11.03
2019-02-07T05:18:56.392Z,14.97
2019-02-07T05:21:54.548Z,10.73
2019-02-07T05:24:43.987Z,17.07
2019-02-07T05:27:39.724Z,13.07
2019-02-07T05:30:34.252Z,8.53
2019-02-07T05:33:18.211Z,10.13
2019-02-07T05:36:16.699Z,10.07
2019-02-07T05:39:24.079Z,8.83
2019-02-07T05:42:25.718Z,9.20
2019-02-07T05:45:20.770Z,7.23
2019-02-07T05:48:08.547Z,7.63
2019-02-07T05:51:12.859Z,7.60
2019-02-07T05:54:00.912Z,18.43
2019-02-07T05:56:41.876Z,10.63
2019-02-07T05:59:37.278Z,6.70
2019-02-07T06:02:26.674Z,6.03
2019-02-07T06:05:16.020Z,7.00
2019-02-07T06:08:11.465Z,6.57
2019-02-07T06:10:52.095Z,6.23
2019-02-07T06:13:47.592Z,6.40
2019-02-07T06:17:02.357Z,6.80
2019-02-07T06:19:40.499Z,5.93
2019-02-07T06:22:28.311Z,7.37
2019-02-07T06:25:23.764Z,6.30
2019-02-07T06:28:13.209Z,19.07
2019-02-07T06:31:01.484Z,8.73
2019-02-07T06:34:09.157Z,6.97
2019-02-07T06:36:57.386Z,6.70
2019-02-07T06:39:38.092Z,7.03
2019-02-07T06:42:20.043Z,7.03
2019-02-07T06:45:07.964Z,7.30
2019-02-07T06:48:00.268Z,6.80
2019-02-07T06:50:48.068Z,6.60
2019-02-07T06:53:46.244Z,7.70
2019-02-07T06:56:35.582Z,7.73
2019-02-07T06:59:18.470Z,7.57
2019-02-07T07:02:06.449Z,7.70
2019-02-07T07:05:04.691Z,7.17
2019-02-07T07:08:02.924Z,7.50
2019-02-07T07:11:04.410Z,7.20
2019-02-07T07:13:59.772Z,6.87
2019-02-07T07:16:46.734Z,7.33
2019-02-07T07:19:34.786Z,7.67
2019-02-07T07:22:27.568Z,6.60
2019-02-07T07:25:19.696Z,7.20
2019-02-07T07:28:19.283Z,7.67
2019-02-07T07:31:17.985Z,7.57
2019-02-07T07:34:19.640Z,7.27
2019-02-07T07:37:00.036Z,7.70
2019-02-07T07:39:52.416Z,8.27
2019-02-07T07:42:53.706Z,8.50
2019-02-07T07:45:41.698Z,9.03
2019-02-07T07:48:30.145Z,10.40
2019-02-07T07:51:12.428Z,8.50
2019-02-07T07:54:01.912Z,8.60
2019-02-07T07:56:47.511Z,8.27
2019-02-07T07:59:37.117Z,9.07
2019-02-07T08:02:35.680Z,9.23
2019-02-07T08:05:32.539Z,8.23
2019-02-07T08:08:24.966Z,8.57
2019-02-07T08:11:29.390Z,10.33
2019-02-07T08:14:37.315Z,10.63
2019-02-07T08:17:32.757Z,10.10
2019-02-07T08:20:17.459Z,10.00
2019-02-07T08:23:15.828Z,10.80
2019-02-07T08:26:14.487Z,11.27
2019-02-07T08:29:02.559Z,10.60
2019-02-07T08:31:46.429Z,10.73
2019-02-07T08:34:34.777Z,10.23
2019-02-07T08:37:33.199Z,9.70
2019-02-07T08:40:31.327Z,10.90
2019-02-07T08:43:20.915Z,13.87
2019-02-07T08:46:08.999Z,9.40
2019-02-07T08:49:01.030Z,8.43
2019-02-07T08:51:55.500Z,10.20
2019-02-07T08:54:43.325Z,9.93
2019-02-07T08:57:48.204Z,10.30
2019-02-07T09:00:36.160Z,11.43
2019-02-07T09:03:28.519Z,11.53
2019-02-07T09:06:12.166Z,10.10
2019-02-07T09:09:07.781Z,12.17
2019-02-07T09:11:56.221Z,11.43
2019-02-07T09:15:00.727Z,11.67
2019-02-07T09:17:48.565Z,12.03
2019-02-07T09:20:25.800Z,11.60
2019-02-07T09:23:30.403Z,14.00
2019-02-07T09:26:34.718Z,12.07
2019-02-07T09:29:20.050Z,13.23
2019-02-07T09:32:05.225Z,12.23
2019-02-07T09:34:47.701Z,13.07
2019-02-07T09:37:39.682Z,13.47
2019-02-07T09:40:28.006Z,21.13
2019-02-07T09:43:15.727Z,10.30
2019-02-07T09:46:03.647Z,10.47
2019-02-07T09:48:51.711Z,10.97
2019-02-07T09:51:34.794Z,9.47
2019-02-07T09:54:23.266Z,14.43
2019-02-07T09:57:05.848Z,9.83
2019-02-07T10:00:10.428Z,9.80
2019-02-07T10:03:08.380Z,9.70
2019-02-07T10:06:12.634Z,10.13
2019-02-07T10:09:00.652Z,9.80
2019-02-07T10:11:50.112Z,13.90
2019-02-07T10:14:45.503Z,21.20
2019-02-07T10:17:41.037Z,11.13
2019-02-07T10:20:40.289Z,10.80
2019-02-07T10:23:23.035Z,9.47
2019-02-07T10:26:27.894Z,8.63
2019-02-07T10:29:31.915Z,8.80
2019-02-07T10:32:17.815Z,8.67
2019-02-07T10:35:23.135Z,8.70
2019-02-07T10:38:12.604Z,9.00
2019-02-07T10:41:10.970Z,10.00
2019-02-07T10:43:58.733Z,9.53
2019-02-07T10:46:48.179Z,9.10
2019-02-07T10:49:46.306Z,8.73
2019-02-07T10:52:41.931Z,11.03
2019-02-07T10:55:34.376Z,10.17
2019-02-07T10:58:27.314Z,8.60
2019-02-07T11:01:16.999Z,8.40
2019-02-07T11:04:12.953Z,6.97
2019-02-07T11:07:00.803Z,8.00
2019-02-07T11:09:59.321Z,10.00
2019-02-07T11:12:47.583Z,13.23
2019-02-07T11:15:49.944Z,27.53
2019-02-07T11:18:55.056Z,11.00
2019-02-07T11:21:39.524Z,9.87
2019-02-07T11:24:47.076Z,8.47
2019-02-07T11:27:45.493Z,7.37
2019-02-07T11:30:28.199Z,8.17
2019-02-07T11:33:20.637Z,8.80
2019-02-07T11:36:13.245Z,9.00
2019-02-07T11:39:01.227Z,8.20
2019-02-07T11:41:47.834Z,7.60
2019-02-07T11:44:35.915Z,7.57
2019-02-07T11:47:23.929Z,8.47
2019-02-07T11:50:13.248Z,9.10
2019-02-07T11:53:23.502Z,8.77
2019-02-07T11:56:11.271Z,9.30
2019-02-07T11:59:12.817Z,9.20
2019-02-07T12:02:08.770Z,9.37
2019-02-07T12:04:51.062Z,11.47
2019-02-07T12:07:40.397Z,11.60
2019-02-07T12:10:47.824Z,11.33
2019-02-07T12:13:30.832Z,10.27
2019-02-07T12:16:36.893Z,10.07
2019-02-07T12:19:32.042Z,10.03
2019-02-07T12:22:33.254Z,10.37
2019-02-07T12:25:36.334Z,10.03
2019-02-07T12:28:36.228Z,11.13
2019-02-07T12:31:24.251Z,10.93
2019-02-07T12:34:03.785Z,11.07
2019-02-07T12:36:43.649Z,9.80
2019-02-07T12:39:48.421Z,12.43
2019-02-07T12:42:43.815Z,10.37
2019-02-07T12:45:48.421Z,20.77
2019-02-07T12:48:50.630Z,14.43
2019-02-07T12:51:42.905Z,10.43
2019-02-07T12:54:32.254Z,49.93
2019-02-07T12:57:40.223Z,12.87
2019-02-07T13:00:31.199Z,10.50
2019-02-07T13:03:21.109Z,10.27
2019-02-07T13:06:06.604Z,10.23
2019-02-07T13:08:59.037Z,10.33
2019-02-07T13:11:51.184Z,10.53
2019-02-07T13:14:41.915Z,12.47
2019-02-07T13:17:31.678Z,10.23
2019-02-07T13:20:19.774Z,10.70
2019-02-07T13:23:14.811Z,10.50
2019-02-07T13:26:00.051Z,10.93
2019-02-07T13:29:04.683Z,11.23
2019-02-07T13:31:54.205Z,10.43
2019-02-07T13:34:49.377Z,9.30
2019-02-07T13:37:56.763Z,10.63
2019-02-07T13:40:46.270Z,10.13
2019-02-07T13:43:41.826Z,10.17
2019-02-07T13:46:22.570Z,10.97
2019-02-07T13:49:15.336Z,11.47
2019-02-07T13:52:05.847Z,10.67
2019-02-07T13:55:04.820Z,9.90
2019-02-07T13:58:12.309Z,11.77
2019-02-07T14:01:07.482Z,10.50
2019-02-07T14:03:56.785Z,10.77
2019-02-07T14:06:44.452Z,10.00
2019-02-07T14:09:39.945Z,10.70
2019-02-07T14:12:38.271Z,10.20
2019-02-07T14:15:23.044Z,10.03
2019-02-07T14:18:16.665Z,10.20
2019-02-07T14:21:24.342Z,10.20
2019-02-07T14:24:20.456Z,9.23
2019-02-07T14:27:08.422Z,10.43
2019-02-07T14:30:07.011Z,10.30
2019-02-07T14:32:55.019Z,16.97
2019-02-07T14:36:02.617Z,11.50
2019-02-07T14:38:54.939Z,11.00
2019-02-07T14:41:40.125Z,15.90
2019-02-07T14:44:38.797Z,23.33
2019-02-07T14:47:09.343Z,12.67
2019-02-07T14:49:40.103Z,12.63
2019-02-07T14:52:10.857Z,15.40
2019-02-07T14:54:41.334Z,18.97
2019-02-07T14:57:11.902Z,16.40
2019-02-07T14:59:42.412Z,18.30
2019-02-07T15:02:13.102Z,19.70
2019-02-07T15:04:44.017Z,21.83
2019-02-07T15:07:14.636Z,14.67
2019-02-07T15:09:45.165Z,13.00
2019-02-07T15:12:15.873Z,16.43
2019-02-07T15:14:46.606Z,15.53
2019-02-07T15:17:17.268Z,16.27
2019-02-07T15:19:48.130Z,16.33
2019-02-07T15:22:18.864Z,16.73
2019-02-07T15:24:49.333Z,17.33
2019-02-07T15:27:19.845Z,16.07
2019-02-07T15:29:50.321Z,16.27
2019-02-07T15:32:20.835Z,21.10
2019-02-07T15:34:53.832Z,16.20
2019-02-07T15:37:23.623Z,19.07
2019-02-07T15:39:54.144Z,16.83
2019-02-07T15:42:24.617Z,20.07
2019-02-07T15:44:55.567Z,30.20
2019-02-07T15:47:26.130Z,27.20
2019-02-07T15:49:56.638Z,27.37
2019-02-07T15:52:27.113Z,26.53
2019-02-07T15:54:57.616Z,21.37
2019-02-07T15:57:28.107Z,19.27
2019-02-07T16:00:01.728Z,16.83
2019-02-07T16:02:38.697Z,15.77
2019-02-07T16:05:11.913Z,16.40
2019-02-07T16:07:42.429Z,16.67
2019-02-07T16:10:14.967Z,14.73
2019-02-07T16:12:45.430Z,16.13
2019-02-07T16:15:16.467Z,17.10
2019-02-07T16:17:47.122Z,18.47
2019-02-07T16:20:18.850Z,18.90
2019-02-07T16:22:49.657Z,22.53
2019-02-07T16:25:20.495Z,40.67
2019-02-07T16:27:50.989Z,33.50
2019-02-07T16:30:21.856Z,34.40
2019-02-07T16:32:52.366Z,34.33
2019-02-07T16:35:23.335Z,23.77
2019-02-07T16:37:54.074Z,19.63
2019-02-07T16:40:24.939Z,19.90
2019-02-07T16:42:55.619Z,18.50
2019-02-07T16:45:26.433Z,19.67
2019-02-07T16:47:57.051Z,21.33
2019-02-07T16:50:27.749Z,21.43
2019-02-07T16:52:58.249Z,24.57
2019-02-07T16:55:28.956Z,24.33
2019-02-07T16:57:59.656Z,28.50
2019-02-07T17:00:30.528Z,26.37
2019-02-07T17:03:01.368Z,25.27
2019-02-07T17:05:31.971Z,25.93
2019-02-07T17:08:02.542Z,23.07
2019-02-07T17:10:34.065Z,25.77
2019-02-07T17:13:05.232Z,27.90
2019-02-07T17:15:36.461Z,22.73
2019-02-07T17:18:07.171Z,18.93
2019-02-07T17:20:37.930Z,17.70
2019-02-07T17:23:08.689Z,17.97
2019-02-07T17:25:39.596Z,15.20
2019-02-07T17:28:10.303Z,16.57
2019-02-07T17:30:40.861Z,17.83
2019-02-07T17:33:11.548Z,15.07
2019-02-07T17:35:42.257Z,14.97
2019-02-07T17:38:12.745Z,16.83
2019-02-07T17:40:43.384Z,16.23
2019-02-07T17:43:14.323Z,17.87
2019-02-07T17:45:44.919Z,15.23
2019-02-07T17:48:15.766Z,17.93
2019-02-07T17:50:46.486Z,23.00
2019-02-07T17:53:16.955Z,26.43
2019-02-07T17:55:47.460Z,26.47
2019-02-07T17:58:17.960Z,19.90
2019-02-07T18:00:57.962Z,21.67
2019-02-07T18:03:28.572Z,28.30
2019-02-07T18:05:59.083Z,19.77
2019-02-07T18:08:30.140Z,22.67
2019-02-07T18:11:00.606Z,22.23
2019-02-07T18:13:31.129Z,33.43
2019-02-07T18:16:01.591Z,29.40
2019-02-07T18:18:32.051Z,21.83
2019-02-07T18:21:02.963Z,21.00
2019-02-07T18:23:33.630Z,19.67
2019-02-07T18:26:04.251Z,18.57
2019-02-07T18:28:34.781Z,18.70
2019-02-07T18:31:05.499Z,16.83
2019-02-07T18:33:36.116Z,17.77
2019-02-07T18:36:06.678Z,18.07
2019-02-07T18:38:37.184Z,18.27
2019-02-07T18:41:07.749Z,17.53
2019-02-07T18:43:38.241Z,19.50
2019-02-07T18:46:08.876Z,20.20
2019-02-07T18:48:39.349Z,18.50
2019-02-07T18:51:10.093Z,19.47
2019-02-07T18:53:40.610Z,19.70
2019-02-07T18:56:11.133Z,16.47
2019-02-07T18:58:41.609Z,19.47
2019-02-07T19:01:12.208Z,19.37
2019-02-07T19:03:42.678Z,18.00
2019-02-07T19:06:13.188Z,17.63
2019-02-07T19:08:43.816Z,16.67
2019-02-07T19:11:14.324Z,17.83
2019-02-07T19:13:44.833Z,17.67
2019-02-07T19:16:17.066Z,17.07
2019-02-07T19:18:47.846Z,16.17
2019-02-07T19:21:18.299Z,17.63
2019-02-07T19:23:48.834Z,16.77
2019-02-07T19:26:19.302Z,14.27
2019-02-07T19:28:49.797Z,15.87
2019-02-07T19:31:20.273Z,15.03
2019-02-07T19:33:50.795Z,13.80
2019-02-07T19:36:21.272Z,14.03
2019-02-07T19:38:51.790Z,12.67
2019-02-07T19:41:22.245Z,15.33
2019-02-07T19:43:52.758Z,12.83
2019-02-07T19:46:23.582Z,10.87
2019-02-07T19:48:54.078Z,12.97
2019-02-07T19:51:24.633Z,11.70
2019-02-07T19:53:55.247Z,10.90
2019-02-07T19:56:25.711Z,11.20
2019-02-07T19:58:56.400Z,11.23
2019-02-07T20:01:27.145Z,10.73
2019-02-07T20:03:59.149Z,10.40
2019-02-07T20:06:29.621Z,10.03
2019-02-07T20:09:00.361Z,10.57
2019-02-07T20:11:30.866Z,10.93
2019-02-07T20:14:01.639Z,10.00
2019-02-07T20:16:32.093Z,11.07
2019-02-07T20:19:02.595Z,11.10
2019-02-07T20:21:33.094Z,11.47
2019-02-07T20:24:03.688Z,11.17
2019-02-07T20:26:34.173Z,10.70
2019-02-07T20:29:04.769Z,10.77
2019-02-07T20:31:35.265Z,13.77
2019-02-07T20:34:05.852Z,13.87
2019-02-07T20:36:36.359Z,13.90
2019-02-07T20:39:09.692Z,18.57
2019-02-07T20:41:40.163Z,14.17
2019-02-07T20:44:10.669Z,17.33
2019-02-07T20:46:41.190Z,14.27
2019-02-07T20:49:11.803Z,18.90
2019-02-07T20:51:42.278Z,20.50
2019-02-07T20:54:12.790Z,17.53
2019-02-07T20:56:43.292Z,19.90
2019-02-07T20:59:14.266Z,20.27
2019-02-07T21:01:44.775Z,17.70
2019-02-07T21:04:15.247Z,16.63
2019-02-07T21:06:45.753Z,18.60
2019-02-07T21:09:16.224Z,20.10
2019-02-07T21:11:46.724Z,20.37
2019-02-07T21:14:17.475Z,19.80
2019-02-07T21:16:47.942Z,21.50
2019-02-07T21:19:18.401Z,21.00
2019-02-07T21:21:48.936Z,19.20
2019-02-07T21:24:19.410Z,20.40
2019-02-07T21:26:49.868Z,13.73
2019-02-07T21:29:20.641Z,15.07
2019-02-07T21:31:51.109Z,13.23
2019-02-07T21:34:21.613Z,15.03
2019-02-07T21:36:52.083Z,13.83
2019-02-07T21:39:22.614Z,14.93
2019-02-07T21:41:53.186Z,14.63
2019-02-07T21:44:23.857Z,14.90
2019-02-07T21:46:54.384Z,13.37
2019-02-07T21:49:24.862Z,13.17
2019-02-07T21:51:55.358Z,14.13
2019-02-07T21:54:25.925Z,14.03
2019-02-07T21:56:56.553Z,15.23
2019-02-07T21:59:27.294Z,13.03
2019-02-07T22:01:57.789Z,11.60
2019-02-07T22:04:28.254Z,13.30
2019-02-07T22:06:58.758Z,12.03
2019-02-07T22:09:29.216Z,13.00
2019-02-07T22:11:59.704Z,11.13
2019-02-07T22:14:30.193Z,12.37
2019-02-07T22:17:00.709Z,12.70
2019-02-07T22:19:31.184Z,11.23
2019-02-07T22:22:01.694Z,11.77
2019-02-07T22:24:32.211Z,11.63
2019-02-07T22:27:02.899Z,18.03
2019-02-07T22:29:33.357Z,12.47
2019-02-07T22:32:03.950Z,13.67
2019-02-07T22:34:34.405Z,12.77
2019-02-07T22:37:04.971Z,11.83
2019-02-07T22:39:35.468Z,10.83
2019-02-07T22:42:06.144Z,11.00
2019-02-07T22:44:36.712Z,12.43
2019-02-07T22:47:07.320Z,11.00
2019-02-07T22:49:37.816Z,10.17
2019-02-07T22:52:08.277Z,9.30
2019-02-07T22:54:38.951Z,10.53
2019-02-07T22:57:09.450Z,9.87
2019-02-07T22:59:39.896Z,9.60
2019-02-07T23:02:11.160Z,8.93
2019-02-07T23:04:41.651Z,9.57
2019-02-07T23:07:12.132Z,9.80
2019-02-07T23:09:42.579Z,9.90
2019-02-07T23:12:13.071Z,8.73
2019-02-07T23:14:43.628Z,9.57
2019-02-07T23:17:14.293Z,9.80
2019-02-07T23:19:44.803Z,9.63
2019-02-07T23:22:15.756Z,10.13
2019-02-07T23:24:46.263Z,9.07
2019-02-07T23:27:16.733Z,10.00
2019-02-07T23:29:47.235Z,9.80
2019-02-07T23:32:17.684Z,9.57
2019-02-07T23:34:48.197Z,10.27
2019-02-07T23:37:18.666Z,11.27
2019-02-07T23:39:49.098Z,10.33
2019-02-07T23:42:19.811Z,10.53
2019-02-07T23:44:50.258Z,11.20
2019-02-07T23:47:20.730Z,11.37
2019-02-07T23:49:51.234Z,11.43
2019-02-07T23:52:21.910Z,14.07
2019-02-07T23:54:52.481Z,13.23
2019-02-07T23:57:23.338Z,14.13
2019-02-07T23:59:53.834Z,14.50
